Time;durP1;ratioP1;P1;durP2;ratioP2;P2;SDS_P1;SDS_P2;PMS_P1;PMS_P2;Temp;Humidity;BMP_temperature;BMP_pressure;BME280_temperature;BME280_humidity;BME280_pressure;Samples;Min_cycle;Max_cycle;Signal;HPM_P1;HPM_P2
2022/03/04 00:00:41;;;;;;;0.70;0.43;;;1.50;99.90;;;;;;4919903;29;20197;-72
2022/03/04 00:03:07;;;;;;;0.70;0.50;;;1.50;99.90;;;;;;4933981;29;20198;-71
2022/03/04 00:05:32;;;;;;;0.70;0.50;;;1.50;99.90;;;;;;4918958;29;20664;-71
2022/03/04 00:07:58;;;;;;;0.70;0.43;;;1.50;99.90;;;;;;4934481;28;20213;-72
2022/03/04 00:10:23;;;;;;;0.70;0.50;;;1.50;99.90;;;;;;4919729;29;20661;-71
2022/03/04 00:12:49;;;;;;;3.73;0.93;;;1.40;99.90;;;;;;4934145;28;20191;-71
2022/03/04 00:15:15;;;;;;;0.80;0.70;;;1.40;99.90;;;;;;4919338;29;20198;-71
2022/03/04 00:17:40;;;;;;;0.80;0.60;;;1.30;99.90;;;;;;4919755;29;20814;-71
2022/03/04 00:20:08;;;;;;;1.00;0.90;;;1.30;99.90;;;;;;4919659;29;20207;-72
2022/03/04 00:22:33;;;;;;;1.17;1.07;;;1.20;99.90;;;;;;4918239;29;20257;-72
2022/03/04 00:24:59;;;;;;;1.73;1.43;;;1.20;99.90;;;;;;4919311;29;20412;-71
2022/03/04 00:27:25;;;;;;;0.83;0.83;;;1.20;99.90;;;;;;4919797;29;20545;-72
2022/03/04 00:29:50;;;;;;;0.70;0.50;;;1.20;99.90;;;;;;4919331;29;20237;-71
2022/03/04 00:32:16;;;;;;;1.10;1.00;;;1.10;99.90;;;;;;4919426;29;20205;-71
2022/03/04 00:34:42;;;;;;;0.80;0.60;;;1.10;99.90;;;;;;4934258;28;20180;-71
2022/03/04 00:37:08;;;;;;;0.70;0.50;;;1.10;99.90;;;;;;4918855;29;20176;-71
2022/03/04 00:39:34;;;;;;;0.70;0.50;;;1.00;99.90;;;;;;4919411;29;20421;-71
2022/03/04 00:41:59;;;;;;;0.70;0.50;;;1.00;99.90;;;;;;4931065;28;20962;-71
2022/03/04 00:44:25;;;;;;;0.70;0.50;;;1.00;99.90;;;;;;4914788;29;20280;-71
2022/03/04 00:46:50;;;;;;;5.60;1.07;;;1.00;99.90;;;;;;4899963;29;20175;-71
2022/03/04 00:49:16;;;;;;;0.70;0.40;;;1.00;99.90;;;;;;4900298;29;20248;-71
2022/03/04 00:51:41;;;;;;;0.70;0.50;;;1.00;99.90;;;;;;4900311;29;20177;-71
2022/03/04 00:54:07;;;;;;;3.60;1.43;;;0.90;99.90;;;;;;4904517;29;20168;-71
2022/03/04 00:56:32;;;;;;;0.70;0.50;;;0.90;99.90;;;;;;4918843;29;20180;-71
2022/03/04 00:58:58;;;;;;;1.10;1.00;;;0.90;99.90;;;;;;4919180;29;20211;-71
2022/03/04 01:01:24;;;;;;;0.70;0.50;;;0.90;99.90;;;;;;4919072;29;20219;-72
2022/03/04 01:03:49;;;;;;;1.27;1.17;;;0.80;99.90;;;;;;4918587;29;20186;-71
2022/03/04 01:06:15;;;;;;;1.27;1.13;;;0.80;99.90;;;;;;4917150;29;20235;-71
2022/03/04 01:08:40;;;;;;;0.70;0.50;;;0.80;99.90;;;;;;4918918;29;20188;-72
2022/03/04 01:11:06;;;;;;;0.70;0.50;;;0.80;99.90;;;;;;4918503;29;20183;-71
2022/03/04 01:13:31;;;;;;;0.70;0.50;;;0.80;99.90;;;;;;4930033;28;20240;-71
2022/03/04 01:15:57;;;;;;;0.70;0.50;;;0.70;99.90;;;;;;4914359;29;20187;-72
2022/03/04 01:18:23;;;;;;;0.73;0.57;;;0.70;99.90;;;;;;4918753;29;20175;-71
2022/03/04 01:20:48;;;;;;;1.50;0.80;;;0.70;99.90;;;;;;4918585;29;20195;-71
2022/03/04 01:23:14;;;;;;;0.70;0.50;;;0.70;99.90;;;;;;4918585;29;20223;-72
2022/03/04 01:25:39;;;;;;;0.70;0.50;;;0.60;99.90;;;;;;4918280;29;20549;-71
2022/03/04 01:28:05;;;;;;;0.73;0.63;;;0.70;99.90;;;;;;4917658;28;20177;-71
2022/03/04 01:30:30;;;;;;;0.70;0.50;;;0.70;99.90;;;;;;4933227;29;20184;-71
2022/03/04 01:32:56;;;;;;;0.70;0.50;;;0.60;99.90;;;;;;4918979;29;20272;-71
2022/03/04 01:35:22;;;;;;;0.70;0.50;;;0.60;99.90;;;;;;4917195;29;20183;-71
2022/03/04 01:37:47;;;;;;;0.70;0.40;;;0.50;99.90;;;;;;4918348;29;20171;-71
2022/03/04 01:40:13;;;;;;;0.70;0.50;;;0.50;99.90;;;;;;4933115;28;20245;-72
2022/03/04 01:42:39;;;;;;;0.70;0.50;;;0.50;99.90;;;;;;4917354;29;20564;-72
2022/03/04 01:45:07;;;;;;;0.80;0.60;;;0.50;99.90;;;;;;4918268;29;20491;-71
2022/03/04 01:47:35;;;;;;;0.70;0.40;;;0.40;99.90;;;;;;4918488;29;20171;-71
2022/03/04 01:50:01;;;;;;;1.57;1.27;;;0.40;99.90;;;;;;4918096;29;20487;-72
2022/03/04 01:52:27;;;;;;;2.67;1.60;;;0.40;99.90;;;;;;4918042;29;20431;-71
2022/03/04 01:54:52;;;;;;;0.70;0.50;;;0.30;99.90;;;;;;4932378;29;20430;-71
2022/03/04 01:57:18;;;;;;;0.70;0.50;;;0.30;99.90;;;;;;4917832;29;20206;-71
2022/03/04 01:59:43;;;;;;;0.80;0.70;;;0.30;99.90;;;;;;4918048;29;20590;-71
2022/03/04 02:02:10;;;;;;;0.70;0.50;;;0.30;99.90;;;;;;4917447;29;20272;-71
2022/03/04 02:04:36;;;;;;;18.23;2.00;;;0.20;99.90;;;;;;4916812;29;20582;-71
2022/03/04 02:07:02;;;;;;;1.67;1.57;;;0.20;99.90;;;;;;4916377;29;20455;-71
2022/03/04 02:09:28;;;;;;;0.77;0.67;;;0.20;99.90;;;;;;4917847;29;20427;-72
2022/03/04 02:11:54;;;;;;;0.70;0.50;;;0.20;99.90;;;;;;4918279;29;20419;-71
2022/03/04 02:14:19;;;;;;;0.70;0.60;;;0.20;99.90;;;;;;4917061;29;20244;-71
2022/03/04 02:16:47;;;;;;;0.90;0.77;;;0.10;99.90;;;;;;4919040;29;20194;-71
2022/03/04 02:19:14;;;;;;;0.70;0.47;;;0.10;99.90;;;;;;4923614;29;20181;-71
2022/03/04 02:22:01;;;;;;;0.70;0.50;;;0.10;99.90;;;;;;4923688;29;20467;-71
2022/03/04 02:24:30;;;;;;;0.70;0.40;;;0.10;99.90;;;;;;4938284;29;20419;-71
2022/03/04 02:26:58;;;;;;;0.70;0.50;;;0.10;99.90;;;;;;4922441;29;20421;-72
2022/03/04 02:29:24;;;;;;;0.80;0.80;;;0.10;99.90;;;;;;4922563;29;20434;-72
2022/03/04 02:31:51;;;;;;;1.10;1.00;;;0.10;99.90;;;;;;4921494;29;20518;-71
2022/03/04 02:34:17;;;;;;;0.70;0.40;;;0.10;99.90;;;;;;4923336;29;20485;-71
2022/03/04 02:36:44;;;;;;;1.13;0.67;;;0.10;99.90;;;;;;4923965;29;20427;-71
2022/03/04 02:39:10;;;;;;;1.53;1.43;;;0.10;99.90;;;;;;4923757;29;20462;-71
2022/03/04 02:41:36;;;;;;;0.70;0.50;;;0.00;99.90;;;;;;4922118;29;20463;-71
2022/03/04 02:44:04;;;;;;;0.70;0.50;;;0.00;99.90;;;;;;4923935;29;20427;-72
2022/03/04 02:46:30;;;;;;;0.90;0.70;;;0.00;99.90;;;;;;4922602;29;20411;-72
2022/03/04 02:48:56;;;;;;;0.70;0.50;;;0.00;99.90;;;;;;4922690;29;20430;-72
2022/03/04 02:51:21;;;;;;;0.70;0.50;;;0.00;99.90;;;;;;4922790;29;20180;-72
2022/03/04 02:53:47;;;;;;;0.90;0.90;;;-0.10;99.90;;;;;;4922981;29;20195;-72
2022/03/04 02:56:13;;;;;;;0.70;0.50;;;-0.10;99.90;;;;;;4923184;29;20224;-72
2022/03/04 02:58:39;;;;;;;0.70;0.60;;;-0.10;99.90;;;;;;4938274;29;20191;-72
2022/03/04 03:01:05;;;;;;;0.70;0.40;;;-0.10;99.90;;;;;;4922203;29;20467;-72
2022/03/04 03:03:31;;;;;;;0.70;0.50;;;-0.10;99.90;;;;;;4921840;29;20460;-72
2022/03/04 03:05:56;;;;;;;1.60;1.50;;;-0.10;99.90;;;;;;4921500;29;20439;-72
2022/03/04 03:08:22;;;;;;;1.27;1.17;;;-0.10;99.90;;;;;;4921795;29;20193;-72
2022/03/04 03:10:47;;;;;;;0.70;0.50;;;-0.10;99.90;;;;;;4921725;29;20176;-72
2022/03/04 03:13:13;;;;;;;0.70;0.50;;;-0.10;99.90;;;;;;4921498;29;20214;-72
2022/03/04 03:15:38;;;;;;;0.70;0.50;;;-0.20;99.90;;;;;;4921433;29;20179;-72
2022/03/04 03:18:04;;;;;;;0.70;0.50;;;-0.20;99.90;;;;;;4921582;29;20180;-72
2022/03/04 03:20:29;;;;;;;0.80;0.60;;;-0.20;99.90;;;;;;4921608;29;20202;-72
2022/03/04 03:22:55;;;;;;;0.77;0.60;;;-0.20;99.90;;;;;;4921628;29;20194;-72
2022/03/04 03:25:21;;;;;;;0.87;0.77;;;-0.20;99.90;;;;;;4921138;29;20266;-71
2022/03/04 03:27:46;;;;;;;0.70;0.50;;;-0.20;99.90;;;;;;4919890;29;20588;-72
2022/03/04 03:30:12;;;;;;;2.57;2.00;;;-0.30;99.90;;;;;;4918338;29;20180;-72
2022/03/04 03:32:38;;;;;;;0.70;0.47;;;-0.30;99.90;;;;;;4919467;29;20208;-72
2022/03/04 03:35:07;;;;;;;0.70;0.50;;;-0.20;99.90;;;;;;4919914;29;20415;-72
2022/03/04 03:37:32;;;;;;;0.70;0.50;;;-0.20;99.90;;;;;;4918862;29;20430;-72
2022/03/04 03:39:58;;;;;;;0.80;0.80;;;-0.10;99.90;;;;;;4919281;29;20824;-72
2022/03/04 03:42:24;;;;;;;1.27;1.17;;;-0.10;99.90;;;;;;4919771;29;20230;-72
2022/03/04 03:44:49;;;;;;;0.70;0.40;;;-0.10;99.90;;;;;;4919608;29;20167;-72
2022/03/04 03:47:15;;;;;;;1.07;0.83;;;0.00;99.90;;;;;;4919078;29;20186;-72
2022/03/04 03:49:40;;;;;;;0.70;0.50;;;0.00;99.90;;;;;;4919123;29;20569;-72
2022/03/04 03:52:07;;;;;;;0.93;0.83;;;0.00;99.90;;;;;;4935090;28;20253;-72
2022/03/04 03:54:32;;;;;;;0.70;0.40;;;0.00;99.90;;;;;;4920230;29;20172;-72
2022/03/04 03:56:58;;;;;;;0.70;0.50;;;0.00;99.90;;;;;;4918046;29;20408;-72
2022/03/04 03:59:23;;;;;;;0.70;0.50;;;0.00;99.90;;;;;;4918510;29;20540;-72
2022/03/04 04:01:49;;;;;;;0.70;0.50;;;0.10;99.90;;;;;;4918833;29;20654;-72
2022/03/04 04:04:15;;;;;;;0.70;0.40;;;0.10;99.90;;;;;;4919687;29;20266;-72
2022/03/04 04:06:42;;;;;;;0.70;0.50;;;0.00;99.90;;;;;;4919498;29;20187;-72
2022/03/04 04:09:08;;;;;;;0.70;0.50;;;0.00;99.90;;;;;;4919988;29;20478;-72
2022/03/04 04:11:35;;;;;;;0.70;0.50;;;0.00;99.90;;;;;;4918397;29;20432;-72
2022/03/04 04:14:03;;;;;;;1.43;1.10;;;0.00;99.90;;;;;;4919486;29;20506;-72
2022/03/04 04:16:28;;;;;;;0.70;0.40;;;0.00;99.90;;;;;;4919677;29;20467;-72
2022/03/04 04:18:54;;;;;;;0.97;0.80;;;0.00;99.90;;;;;;4920020;29;20415;-72
2022/03/04 04:21:19;;;;;;;0.70;0.40;;;0.00;99.90;;;;;;4919340;29;20196;-72
2022/03/04 04:23:45;;;;;;;0.70;0.40;;;-0.10;99.90;;;;;;4918614;29;20192;-73
2022/03/04 04:26:10;;;;;;;3.27;1.03;;;0.00;99.90;;;;;;4919000;29;20186;-72
2022/03/04 04:28:36;;;;;;;0.70;0.50;;;-0.10;99.90;;;;;;4919706;29;20176;-72
2022/03/04 04:31:02;;;;;;;0.70;0.40;;;-0.10;99.90;;;;;;4918865;29;20664;-72
2022/03/04 04:33:28;;;;;;;0.70;0.50;;;-0.10;99.90;;;;;;4919378;29;20202;-72
2022/03/04 04:35:54;;;;;;;0.90;0.70;;;-0.10;99.90;;;;;;4920002;29;20417;-72
2022/03/04 04:38:19;;;;;;;0.70;0.50;;;-0.10;99.90;;;;;;4919807;29;20179;-72
2022/03/04 04:40:45;;;;;;;0.70;0.47;;;-0.10;99.90;;;;;;4917010;29;20201;-72
2022/03/04 04:43:10;;;;;;;0.70;0.50;;;-0.10;99.90;;;;;;4931869;28;20214;-72
2022/03/04 04:45:36;;;;;;;0.70;0.50;;;-0.10;99.90;;;;;;4919255;29;20207;-72
2022/03/04 04:48:01;;;;;;;0.70;0.50;;;-0.10;99.90;;;;;;4919215;29;20175;-72
2022/03/04 04:50:27;;;;;;;0.70;0.60;;;-0.10;99.90;;;;;;4916640;29;20187;-72
2022/03/04 04:52:53;;;;;;;0.70;0.50;;;-0.10;99.90;;;;;;4931653;29;20195;-72
2022/03/04 04:55:19;;;;;;;0.70;0.50;;;-0.10;99.90;;;;;;4917991;29;20419;-72
2022/03/04 04:57:44;;;;;;;0.70;0.40;;;-0.10;99.90;;;;;;4917455;29;20645;-72
2022/03/04 05:00:10;;;;;;;0.70;0.50;;;-0.10;99.90;;;;;;4917316;29;20451;-71
2022/03/04 05:02:36;;;;;;;0.70;0.50;;;-0.20;99.90;;;;;;4919771;29;20665;-72
2022/03/04 05:05:01;;;;;;;0.70;0.50;;;-0.20;99.90;;;;;;4920228;29;20415;-72
2022/03/04 05:07:27;;;;;;;0.70;0.60;;;-0.20;99.90;;;;;;4920338;29;20172;-72
2022/03/04 05:09:53;;;;;;;0.70;0.50;;;-0.20;99.90;;;;;;4920117;29;20173;-72
2022/03/04 05:12:18;;;;;;;0.93;0.83;;;-0.20;99.90;;;;;;4920578;29;20670;-72
2022/03/04 05:14:44;;;;;;;0.70;0.50;;;-0.20;99.90;;;;;;4918429;29;20190;-72
2022/03/04 05:17:10;;;;;;;0.70;0.40;;;-0.20;99.90;;;;;;4916994;28;20233;-73
2022/03/04 05:19:35;;;;;;;0.70;0.50;;;-0.20;99.90;;;;;;4916556;29;20589;-73
2022/03/04 05:22:01;;;;;;;0.70;0.47;;;-0.20;99.90;;;;;;4932377;29;20217;-72
2022/03/04 05:24:26;;;;;;;2.43;2.23;;;-0.30;99.90;;;;;;4919506;29;20182;-72
2022/03/04 05:26:52;;;;;;;0.70;0.40;;;-0.30;99.90;;;;;;4919010;29;20187;-72
2022/03/04 05:29:17;;;;;;;0.70;0.60;;;-0.30;99.90;;;;;;4919052;29;20179;-72
2022/03/04 05:31:43;;;;;;;0.93;0.80;;;-0.30;99.90;;;;;;4918843;29;20183;-72
2022/03/04 05:34:10;;;;;;;0.70;0.50;;;-0.30;99.90;;;;;;4917871;29;20556;-72
2022/03/04 05:36:37;;;;;;;0.70;0.50;;;-0.40;99.90;;;;;;4916708;29;20227;-72
2022/03/04 05:39:03;;;;;;;0.80;0.60;;;-0.40;99.90;;;;;;4918388;29;20430;-72
2022/03/04 05:41:29;;;;;;;3.50;1.07;;;-0.40;99.90;;;;;;4917807;29;20485;-72
2022/03/04 05:43:55;;;;;;;0.70;0.43;;;-0.30;99.90;;;;;;4917057;29;20522;-72
2022/03/04 05:46:20;;;;;;;0.70;0.40;;;-0.40;99.90;;;;;;4916463;29;20190;-72
2022/03/04 05:48:46;;;;;;;0.70;0.50;;;-0.40;99.90;;;;;;4916883;29;20255;-72
2022/03/04 05:51:11;;;;;;;1.87;1.73;;;-0.40;99.90;;;;;;4916298;29;20171;-72
2022/03/04 05:53:37;;;;;;;0.80;0.80;;;-0.40;99.90;;;;;;4916778;29;20199;-72
2022/03/04 05:56:07;;;;;;;0.70;0.40;;;-0.40;99.90;;;;;;4916891;29;20646;-72
2022/03/04 05:58:34;;;;;;;0.90;0.77;;;-0.50;99.90;;;;;;4918019;29;20532;-72
2022/03/04 06:01:01;;;;;;;1.00;0.90;;;-0.50;99.90;;;;;;4928227;28;20452;-72
2022/03/04 06:03:27;;;;;;;0.70;0.50;;;-0.50;99.90;;;;;;4899048;29;20463;-72
2022/03/04 06:05:52;;;;;;;0.70;0.60;;;-0.50;99.90;;;;;;4899174;29;20771;-72
2022/03/04 06:08:18;;;;;;;0.70;0.50;;;-0.50;99.90;;;;;;4904194;29;20445;-72
2022/03/04 06:10:44;;;;;;;0.90;0.90;;;-0.50;99.90;;;;;;4916715;29;20518;-72
2022/03/04 06:13:11;;;;;;;1.33;1.23;;;-0.50;99.90;;;;;;4917605;29;20203;-72
2022/03/04 06:15:36;;;;;;;4.40;3.07;;;-0.60;99.90;;;;;;4916668;29;20411;-73
2022/03/04 06:18:02;;;;;;;0.70;0.40;;;-0.60;99.90;;;;;;4917357;29;20412;-72
2022/03/04 06:20:28;;;;;;;0.70;0.50;;;-0.50;99.90;;;;;;4916635;29;20259;-72
2022/03/04 06:22:53;;;;;;;0.70;0.40;;;-0.50;99.90;;;;;;4917178;29;20231;-73
2022/03/04 06:25:19;;;;;;;0.70;0.50;;;-0.50;99.90;;;;;;4917091;29;20703;-72
2022/03/04 06:27:56;;;;;;;0.70;0.47;;;-0.50;99.90;;;;;;4917595;29;20254;-72
2022/03/04 06:30:23;;;;;;;0.70;0.60;;;-0.40;99.90;;;;;;4917458;29;20647;-72
2022/03/04 06:32:51;;;;;;;0.70;0.50;;;-0.40;99.90;;;;;;4918509;29;20448;-72
2022/03/04 06:35:16;;;;;;;0.70;0.50;;;-0.40;99.90;;;;;;4918639;29;20416;-72
2022/03/04 06:37:42;;;;;;;0.93;0.83;;;-0.30;99.90;;;;;;4916365;29;20420;-72
2022/03/04 06:40:08;;;;;;;0.70;0.50;;;-0.30;99.90;;;;;;4916814;29;20255;-73
2022/03/04 06:42:34;;;;;;;0.70;0.50;;;-0.30;99.90;;;;;;4916925;29;20420;-72
2022/03/04 06:44:59;;;;;;;0.70;0.40;;;-0.30;99.90;;;;;;4916318;29;20922;-73
2022/03/04 06:47:25;;;;;;;1.57;1.47;;;-0.30;99.90;;;;;;4916134;29;20172;-73
2022/03/04 06:49:50;;;;;;;0.90;0.60;;;-0.20;99.90;;;;;;4916631;29;20183;-73
2022/03/04 06:52:16;;;;;;;0.90;0.70;;;-0.20;99.90;;;;;;4931038;28;20215;-72
2022/03/04 06:54:42;;;;;;;0.70;0.40;;;-0.10;99.90;;;;;;4916113;29;20188;-72
2022/03/04 06:57:07;;;;;;;0.83;0.70;;;-0.10;99.90;;;;;;4917678;29;20187;-72
2022/03/04 06:59:33;;;;;;;0.70;0.43;;;0.00;99.90;;;;;;4918823;29;20665;-72
2022/03/04 07:01:59;;;;;;;6.57;3.07;;;0.00;99.90;;;;;;4918020;29;20326;-72
2022/03/04 07:04:25;;;;;;;0.90;0.70;;;0.10;99.90;;;;;;4922212;29;20952;-72
2022/03/04 07:06:51;;;;;;;0.70;0.43;;;0.10;99.90;;;;;;4936212;29;20419;-72
2022/03/04 07:09:17;;;;;;;0.70;0.40;;;0.20;99.90;;;;;;4936225;29;20193;-72
2022/03/04 07:11:42;;;;;;;0.70;0.47;;;0.30;99.90;;;;;;4918930;29;20167;-72
2022/03/04 07:14:08;;;;;;;1.37;1.27;;;0.40;99.90;;;;;;4918997;29;20895;-72
2022/03/04 07:16:33;;;;;;;6.00;2.50;;;0.50;99.90;;;;;;4918636;29;20180;-72
2022/03/04 07:18:59;;;;;;;0.80;0.60;;;0.50;99.90;;;;;;4918928;29;20186;-72
2022/03/04 07:21:25;;;;;;;0.70;0.50;;;0.70;99.90;;;;;;4933157;28;20204;-72
2022/03/04 07:23:50;;;;;;;0.70;0.50;;;0.70;99.90;;;;;;4918787;29;20194;-72
2022/03/04 07:26:16;;;;;;;2.70;1.63;;;0.80;99.90;;;;;;4921031;29;20574;-72
2022/03/04 07:28:42;;;;;;;0.70;0.50;;;1.00;99.90;;;;;;4935778;28;20171;-72
2022/03/04 07:31:08;;;;;;;1.27;1.00;;;1.00;99.90;;;;;;4919588;29;20525;-72
2022/03/04 07:33:36;;;;;;;0.70;0.60;;;1.20;99.90;;;;;;4918815;29;20217;-72
2022/03/04 07:36:03;;;;;;;1.77;1.67;;;1.30;99.90;;;;;;4918330;29;20545;-72
2022/03/04 07:38:28;;;;;;;0.70;0.50;;;1.50;99.90;;;;;;4921289;29;20418;-72
2022/03/04 07:40:58;;;;;;;0.90;0.87;;;1.70;99.90;;;;;;4920911;29;20450;-72
2022/03/04 07:43:23;;;;;;;0.70;0.50;;;1.90;99.90;;;;;;4918328;29;20190;-72
2022/03/04 07:45:49;;;;;;;0.70;0.50;;;2.10;99.90;;;;;;4918026;29;20474;-72
2022/03/04 07:48:15;;;;;;;0.80;0.67;;;2.30;99.90;;;;;;4918358;29;20532;-72
2022/03/04 07:50:40;;;;;;;0.70;0.60;;;2.70;99.90;;;;;;4918367;29;20179;-72
2022/03/04 07:53:06;;;;;;;1.17;1.07;;;3.20;99.90;;;;;;4918083;29;20228;-73
2022/03/04 07:55:31;;;;;;;0.70;0.50;;;3.90;99.90;;;;;;4917992;29;20175;-72
2022/03/04 07:57:58;;;;;;;1.27;1.13;;;4.80;99.90;;;;;;4930888;28;20222;-73
2022/03/04 08:00:24;;;;;;;0.70;0.60;;;5.60;99.90;;;;;;4915257;29;20192;-71
2022/03/04 08:02:51;;;;;;;1.77;1.43;;;6.30;99.90;;;;;;4900717;29;20443;-71
2022/03/04 08:05:17;;;;;;;0.80;0.70;;;7.00;99.90;;;;;;4914788;29;20421;-71
2022/03/04 08:07:42;;;;;;;0.70;0.60;;;7.60;99.90;;;;;;4902035;29;20994;-73
2022/03/04 08:10:09;;;;;;;1.47;1.37;;;8.30;99.90;;;;;;4919413;29;20190;-73
2022/03/04 08:12:36;;;;;;;4.03;3.73;;;9.00;99.90;;;;;;4919613;29;20874;-73
2022/03/04 08:15:02;;;;;;;1.30;1.20;;;9.70;96.90;;;;;;4917290;29;21001;-73
2022/03/04 08:17:30;;;;;;;2.30;2.20;;;10.50;94.30;;;;;;4918668;29;20439;-73
2022/03/04 08:19:55;;;;;;;9.43;2.20;;;11.30;90.90;;;;;;4918099;29;20412;-71
2022/03/04 08:22:21;;;;;;;3.17;1.00;;;12.00;87.00;;;;;;4918653;29;20434;-71
2022/03/04 08:24:47;;;;;;;4.83;4.43;;;12.70;81.20;;;;;;4918280;29;20540;-71
2022/03/04 08:27:12;;;;;;;8.30;2.90;;;13.50;73.30;;;;;;4918221;29;20171;-71
2022/03/04 08:29:38;;;;;;;2.43;2.10;;;14.10;68.70;;;;;;4932722;29;20176;-71
2022/03/04 08:32:04;;;;;;;1.67;1.57;;;14.70;65.50;;;;;;4918040;29;20191;-72
2022/03/04 08:34:29;;;;;;;4.07;2.90;;;15.40;61.50;;;;;;4917751;29;20849;-71
2022/03/04 08:36:55;;;;;;;4.27;2.00;;;16.20;59.20;;;;;;4917779;29;20427;-71
2022/03/04 08:39:20;;;;;;;2.40;1.73;;;17.00;56.80;;;;;;4918375;29;20187;-72
2022/03/04 08:41:46;;;;;;;1.93;1.73;;;17.80;54.30;;;;;;4918324;29;20701;-71
2022/03/04 08:44:12;;;;;;;3.73;1.90;;;18.40;50.90;;;;;;4917844;29;20172;-71
2022/03/04 08:46:37;;;;;;;3.10;2.07;;;18.90;47.90;;;;;;4917833;29;20420;-71
2022/03/04 08:49:04;;;;;;;2.20;2.00;;;19.40;46.80;;;;;;4918769;29;20251;-71
2022/03/04 08:51:30;;;;;;;3.17;2.50;;;20.10;46.30;;;;;;4924158;29;20236;-72
2022/03/04 08:53:55;;;;;;;2.40;2.10;;;20.60;44.00;;;;;;4921416;29;20467;-72
2022/03/04 08:56:21;;;;;;;6.00;3.70;;;21.20;43.50;;;;;;4917666;29;20181;-72
2022/03/04 08:58:48;;;;;;;3.57;2.40;;;21.50;41.10;;;;;;4917778;29;20175;-72
2022/03/04 09:01:14;;;;;;;2.97;2.63;;;21.80;40.70;;;;;;4917858;29;20456;-72
2022/03/04 09:03:40;;;;;;;5.27;3.37;;;22.40;40.50;;;;;;4917965;29;20435;-72
2022/03/04 09:06:05;;;;;;;3.80;2.90;;;22.70;38.70;;;;;;4917692;29;20171;-72
2022/03/04 09:08:31;;;;;;;4.77;3.90;;;23.20;39.10;;;;;;4917664;29;20203;-72
2022/03/04 09:10:56;;;;;;;4.30;3.10;;;23.60;38.40;;;;;;4918227;29;20175;-72
2022/03/04 09:13:22;;;;;;;3.63;2.27;;;23.80;37.30;;;;;;4918027;29;20199;-72
2022/03/04 09:15:48;;;;;;;3.63;2.10;;;24.00;36.00;;;;;;4918050;29;20171;-72
2022/03/04 09:18:13;;;;;;;5.17;3.10;;;24.20;35.90;;;;;;4918467;29;20427;-72
2022/03/04 09:20:39;;;;;;;3.33;3.03;;;24.30;35.20;;;;;;4918514;29;20200;-72
2022/03/04 09:23:05;;;;;;;4.07;2.50;;;24.30;34.70;;;;;;4918695;29;20195;-72
2022/03/04 09:25:31;;;;;;;16.47;4.27;;;24.60;35.10;;;;;;4918120;29;20254;-72
2022/03/04 09:27:56;;;;;;;4.97;4.00;;;24.40;33.50;;;;;;4917078;29;20948;-72
2022/03/04 09:30:22;;;;;;;4.23;3.60;;;24.40;33.70;;;;;;4918474;29;20412;-72
2022/03/04 09:32:48;;;;;;;4.20;3.80;;;24.30;33.90;;;;;;4933879;28;20207;-72
2022/03/04 09:35:13;;;;;;;5.20;3.40;;;24.30;33.70;;;;;;4918682;29;20415;-72
2022/03/04 09:37:39;;;;;;;5.07;3.70;;;24.20;33.50;;;;;;4918324;29;20204;-72
2022/03/04 09:40:07;;;;;;;5.47;3.20;;;24.00;33.30;;;;;;4932722;29;20175;-72
2022/03/04 09:42:33;;;;;;;6.57;4.10;;;24.20;33.50;;;;;;4918158;29;20306;-72
2022/03/04 09:44:59;;;;;;;6.63;3.50;;;24.40;33.80;;;;;;4918493;29;20900;-72
2022/03/04 09:47:24;;;;;;;6.10;3.33;;;24.70;33.60;;;;;;4917099;29;20415;-72
2022/03/04 09:49:52;;;;;;;7.90;4.43;;;24.90;33.00;;;;;;4918757;29;20430;-72
2022/03/04 09:52:18;;;;;;;7.83;4.00;;;25.10;33.40;;;;;;4918292;29;20199;-72
2022/03/04 09:54:51;;;;;;;5.97;4.30;;;25.30;33.30;;;;;;4908157;29;20506;-72
2022/03/04 09:57:18;;;;;;;7.47;4.43;;;25.60;33.10;;;;;;4915092;29;20479;-72
2022/03/04 09:59:44;;;;;;;10.40;4.77;;;26.00;33.20;;;;;;4917466;29;20498;-72
2022/03/04 10:02:12;;;;;;;3.03;2.67;;;26.40;32.60;;;;;;4917654;29;20534;-73
2022/03/04 10:04:38;;;;;;;3.87;2.60;;;26.60;32.00;;;;;;4932327;28;20258;-72
2022/03/04 10:07:12;;;;;;;4.93;4.10;;;26.80;31.60;;;;;;4912758;29;20421;-73
2022/03/04 10:09:47;;;;;;;9.27;4.73;;;26.90;31.50;;;;;;4918097;29;20526;-72
2022/03/04 10:12:18;;;;;;;12.40;5.77;;;27.00;31.20;;;;;;4917530;29;20435;-72
2022/03/04 10:15:07;;;;;;;5.03;3.93;;;27.40;31.30;;;;;;4917495;29;20495;-72
2022/03/04 10:17:34;;;;;;;5.50;4.83;;;27.70;30.80;;;;;;4902587;29;20415;-72
2022/03/04 10:20:04;;;;;;;6.20;5.03;;;28.10;30.60;;;;;;4917352;29;20447;-72
2022/03/04 10:22:42;;;;;;;10.73;7.90;;;28.50;30.60;;;;;;4917071;29;20430;-73
2022/03/04 10:25:14;;;;;;;7.37;5.27;;;29.20;30.80;;;;;;4928852;28;20775;-73
2022/03/04 10:27:40;;;;;;;8.50;5.57;;;29.60;29.90;;;;;;4898449;29;20428;-73
2022/03/04 10:30:06;;;;;;;6.20;5.37;;;29.70;29.00;;;;;;4898668;29;20405;-73
2022/03/04 10:32:32;;;;;;;7.27;4.90;;;29.70;28.90;;;;;;4898670;29;20195;-73
2022/03/04 10:35:06;;;;;;;8.10;5.60;;;29.60;28.80;;;;;;4900861;29;20412;-72
2022/03/04 10:37:52;;;;;;;7.10;5.10;;;29.40;28.80;;;;;;4918339;29;20436;-72
2022/03/04 10:40:19;;;;;;;7.67;4.90;;;29.30;28.60;;;;;;4921193;29;20902;-72
2022/03/04 10:42:56;;;;;;;16.20;6.47;;;29.50;29.00;;;;;;4921145;29;20441;-73
2022/03/04 10:45:32;;;;;;;7.73;5.17;;;29.80;28.90;;;;;;4920857;29;20403;-73
2022/03/04 10:47:58;;;;;;;5.97;3.80;;;30.20;29.00;;;;;;4920857;29;20508;-73
2022/03/04 10:50:33;;;;;;;9.73;5.47;;;30.40;28.70;;;;;;4921014;29;20459;-72
2022/03/04 10:53:02;;;;;;;5.10;4.60;;;30.60;28.50;;;;;;4921001;29;20462;-72
2022/03/04 10:55:29;;;;;;;8.50;5.53;;;31.00;28.60;;;;;;4922916;29;20442;-73
2022/03/04 10:57:56;;;;;;;5.40;4.30;;;31.40;28.30;;;;;;4920546;29;20443;-72
2022/03/04 11:00:34;;;;;;;7.27;4.70;;;32.00;28.40;;;;;;4918854;29;20415;-72
2022/03/04 11:03:00;;;;;;;9.87;5.80;;;32.60;28.00;;;;;;4920451;29;20613;-72
2022/03/04 11:05:26;;;;;;;9.20;6.33;;;32.90;27.30;;;;;;4920216;29;20416;-72
2022/03/04 11:07:52;;;;;;;9.10;6.10;;;33.50;27.30;;;;;;4920164;29;20431;-72
2022/03/04 11:10:19;;;;;;;9.73;5.40;;;33.80;26.90;;;;;;4920340;29;20482;-72
2022/03/04 11:12:46;;;;;;;8.30;4.90;;;34.00;26.70;;;;;;4920401;29;20191;-72
2022/03/04 11:15:12;;;;;;;5.57;4.20;;;34.30;26.70;;;;;;4922020;29;20419;-73
2022/03/04 11:17:39;;;;;;;7.80;5.63;;;34.50;26.30;;;;;;4920484;29;20411;-72
2022/03/04 11:20:07;;;;;;;8.83;4.93;;;35.00;26.70;;;;;;4920558;29;20438;-72
2022/03/04 11:22:34;;;;;;;6.43;4.30;;;35.70;26.70;;;;;;4919327;29;20446;-72
2022/03/04 11:25:05;;;;;;;11.07;4.77;;;35.80;25.90;;;;;;4920482;29;20404;-72
2022/03/04 11:27:36;;;;;;;5.83;4.13;;;36.40;25.70;;;;;;4920233;29;20514;-72
2022/03/04 11:30:02;;;;;;;5.97;4.90;;;36.80;25.40;;;;;;4920769;29;20416;-72
2022/03/04 11:32:30;;;;;;;5.97;4.67;;;37.00;24.90;;;;;;4920473;29;20427;-73
2022/03/04 11:34:56;;;;;;;10.80;6.17;;;37.30;25.10;;;;;;4920443;29;20404;-73
2022/03/04 11:37:22;;;;;;;6.80;5.37;;;37.60;25.00;;;;;;4920182;29;20431;-73
2022/03/04 11:40:03;;;;;;;7.30;5.80;;;38.10;24.50;;;;;;4918876;29;20176;-73
2022/03/04 11:42:39;;;;;;;5.23;4.63;;;38.50;24.70;;;;;;4920403;29;20458;-72
2022/03/04 11:45:08;;;;;;;10.40;6.60;;;38.60;24.20;;;;;;4918749;29;20510;-73
2022/03/04 11:47:39;;;;;;;5.13;4.27;;;38.90;23.80;;;;;;4919793;29;20408;-73
2022/03/04 11:50:31;;;;;;;9.80;5.50;;;39.40;24.10;;;;;;4919622;29;20404;-73
2022/03/04 11:53:22;;;;;;;6.50;4.47;;;39.30;23.40;;;;;;4920289;29;20621;-73
2022/03/04 11:56:11;;;;;;;4.97;4.37;;;39.80;23.60;;;;;;4921378;29;20428;-73
2022/03/04 11:58:57;;;;;;;5.03;4.63;;;40.20;23.60;;;;;;4920272;29;20449;-73
2022/03/04 12:01:34;;;;;;;4.43;4.10;;;40.50;23.40;;;;;;4920467;29;20408;-73
2022/03/04 12:04:14;;;;;;;4.27;3.87;;;40.50;23.00;;;;;;4919837;29;20523;-73
2022/03/04 12:06:40;;;;;;;4.90;4.40;;;41.00;23.30;;;;;;4918549;29;21254;-72
2022/03/04 12:09:29;;;;;;;5.70;4.83;;;41.20;23.00;;;;;;4915617;29;20934;-73
2022/03/04 12:12:23;;;;;;;4.13;3.80;;;41.10;22.50;;;;;;4900804;29;20483;-73
2022/03/04 12:15:15;;;;;;;5.13;4.47;;;41.20;22.90;;;;;;4900613;29;20436;-72
2022/03/04 12:18:04;;;;;;;7.73;4.80;;;41.60;22.90;;;;;;4900035;29;20416;-73
2022/03/04 12:20:40;;;;;;;6.03;5.13;;;41.50;22.30;;;;;;4930442;29;21037;-73
2022/03/04 12:23:09;;;;;;;7.20;5.80;;;41.80;22.50;;;;;;4934349;28;20446;-73
2022/03/04 12:25:56;;;;;;;9.20;6.13;;;41.80;22.20;;;;;;4918930;29;20770;-73
2022/03/04 12:28:40;;;;;;;5.20;4.70;;;42.20;22.70;;;;;;4918699;29;20415;-73
2022/03/04 12:31:05;;;;;;;6.60;5.53;;;42.30;22.00;;;;;;4918377;29;20461;-81
2022/03/04 12:33:36;;;;;;;7.67;5.90;;;42.50;22.00;;;;;;4918397;29;20467;-78
2022/03/04 12:36:04;;;;;;;6.20;5.00;;;42.40;22.30;;;;;;4920539;29;20163;-79
2022/03/04 12:38:41;;;;;;;6.10;5.30;;;42.40;22.30;;;;;;4936104;29;20454;-79
2022/03/04 12:41:15;;;;;;;6.50;4.90;;;42.40;21.60;;;;;;4920959;29;20422;-79
2022/03/04 12:43:46;;;;;;;7.73;6.27;;;42.30;21.70;;;;;;4920167;29;20464;-79
2022/03/04 12:46:18;;;;;;;7.63;5.67;;;42.30;21.70;;;;;;4921234;29;20388;-79
2022/03/04 12:48:44;;;;;;;6.63;5.17;;;42.30;21.40;;;;;;4936315;28;20899;-79
2022/03/04 12:51:30;;;;;;;6.47;4.10;;;42.40;21.40;;;;;;4920272;29;20514;-79